createdAt,value
2022-09-28T00:01:04.557Z,49.60
2022-09-28T00:03:30.958Z,49.64
2022-09-28T00:05:57.348Z,49.60
2022-09-28T00:08:23.731Z,49.65
2022-09-28T00:10:50.139Z,49.58
2022-09-28T00:13:16.535Z,49.71
2022-09-28T00:15:42.937Z,49.62
2022-09-28T00:18:09.353Z,49.65
2022-09-28T00:20:35.736Z,49.69
2022-09-28T00:23:02.204Z,49.59
2022-09-28T00:25:28.636Z,49.63
2022-09-28T00:27:55.042Z,49.71
2022-09-28T00:30:21.419Z,49.85
2022-09-28T00:32:47.852Z,49.72
2022-09-28T00:35:14.235Z,49.87
2022-09-28T00:37:40.711Z,49.90
2022-09-28T00:40:07.108Z,49.78
2022-09-28T00:42:33.487Z,49.81
2022-09-28T00:44:59.887Z,49.72
2022-09-28T00:47:26.277Z,49.78
2022-09-28T00:49:52.659Z,49.91
2022-09-28T00:52:19.158Z,49.79
2022-09-28T00:54:45.583Z,49.97
2022-09-28T00:57:12.052Z,49.84
2022-09-28T00:59:38.474Z,49.92
2022-09-28T01:02:04.950Z,49.89
2022-09-28T01:04:31.480Z,49.91
2022-09-28T01:06:57.875Z,49.85
2022-09-28T01:09:24.323Z,49.85
2022-09-28T01:11:50.708Z,50.03
2022-09-28T01:14:17.091Z,49.86
2022-09-28T01:16:43.543Z,49.95
2022-09-28T01:19:10.017Z,50.00
2022-09-28T01:21:36.440Z,49.93
2022-09-28T01:24:02.850Z,50.11
2022-09-28T01:26:29.328Z,49.97
2022-09-28T01:28:55.774Z,50.02
2022-09-28T01:31:22.228Z,49.91
2022-09-28T01:33:48.730Z,49.88
2022-09-28T01:36:15.150Z,50.05
2022-09-28T01:38:41.542Z,49.96
2022-09-28T01:41:07.929Z,49.93
2022-09-28T01:43:34.325Z,50.13
2022-09-28T01:46:00.746Z,49.99
2022-09-28T01:48:27.173Z,50.00
2022-09-28T01:50:53.569Z,50.03
2022-09-28T01:53:19.953Z,50.08
2022-09-28T01:55:46.338Z,49.94
2022-09-28T01:58:12.726Z,49.98
2022-09-28T02:00:39.193Z,49.94
2022-09-28T02:03:05.598Z,50.06
2022-09-28T02:05:32.052Z,49.92
2022-09-28T02:07:58.451Z,50.10
2022-09-28T02:10:24.837Z,50.09
2022-09-28T02:12:51.233Z,50.08
2022-09-28T02:15:17.607Z,50.20
2022-09-28T02:17:44.005Z,50.19
2022-09-28T02:20:10.385Z,50.08
2022-09-28T02:22:36.763Z,50.07
2022-09-28T02:25:03.158Z,50.12
2022-09-28T02:27:29.536Z,50.21
2022-09-28T02:29:55.941Z,50.08
2022-09-28T02:32:22.319Z,50.19
2022-09-28T02:34:48.713Z,50.14
2022-09-28T02:37:15.118Z,50.12
2022-09-28T02:39:41.569Z,50.11
2022-09-28T02:42:07.961Z,50.17
2022-09-28T02:44:34.340Z,50.13
2022-09-28T02:47:00.776Z,50.15
2022-09-28T02:49:27.154Z,49.98
2022-09-28T02:51:53.539Z,50.14
2022-09-28T02:54:19.931Z,50.06
2022-09-28T02:56:46.320Z,50.17
2022-09-28T02:59:12.913Z,50.06
2022-09-28T03:01:39.492Z,50.08
2022-09-28T03:04:05.889Z,49.94
2022-09-28T03:06:32.279Z,50.17
2022-09-28T03:08:58.664Z,50.07
2022-09-28T03:11:25.064Z,49.90
2022-09-28T03:13:51.444Z,50.04
2022-09-28T03:16:17.878Z,49.99
2022-09-28T03:18:44.318Z,50.05
2022-09-28T03:21:10.726Z,49.97
2022-09-28T03:23:37.128Z,49.93
2022-09-28T03:26:03.547Z,49.94
2022-09-28T03:28:29.958Z,50.00
2022-09-28T03:30:56.424Z,49.91
2022-09-28T03:33:22.874Z,49.96
2022-09-28T03:35:49.255Z,50.07
2022-09-28T03:38:15.648Z,49.92
2022-09-28T03:40:42.093Z,49.95
2022-09-28T03:43:08.510Z,50.08
2022-09-28T03:45:34.921Z,50.13
2022-09-28T03:48:01.356Z,49.99
2022-09-28T03:50:27.792Z,50.07
2022-09-28T03:52:54.165Z,50.14
2022-09-28T03:55:20.560Z,50.10
2022-09-28T03:57:46.951Z,50.10
2022-09-28T04:00:13.369Z,50.01
2022-09-28T04:02:39.835Z,50.11
2022-09-28T04:05:06.327Z,50.05
2022-09-28T04:07:32.701Z,49.97
2022-09-28T04:09:59.083Z,50.09
2022-09-28T04:12:25.488Z,50.05
2022-09-28T04:14:51.884Z,50.02
2022-09-28T04:17:18.283Z,50.07
2022-09-28T04:19:44.666Z,50.03
2022-09-28T04:22:11.072Z,49.94
2022-09-28T04:24:37.458Z,49.99
2022-09-28T04:27:03.884Z,50.06
2022-09-28T04:29:30.281Z,49.97
2022-09-28T04:31:56.708Z,50.05
2022-09-28T04:34:23.175Z,49.95
2022-09-28T04:36:49.561Z,49.94
2022-09-28T04:39:15.933Z,49.76
2022-09-28T04:41:42.310Z,49.71
2022-09-28T04:44:08.687Z,49.82
2022-09-28T04:46:35.149Z,49.80
2022-09-28T04:49:01.554Z,50.49
2022-09-28T04:51:27.922Z,51.10
2022-09-28T04:53:54.289Z,50.95
2022-09-28T04:56:20.697Z,51.25
2022-09-28T04:58:52.439Z,51.39
2022-09-28T05:01:19.293Z,51.33
2022-09-28T05:03:45.706Z,51.36
2022-09-28T05:06:12.178Z,51.54
2022-09-28T05:08:38.532Z,51.58
2022-09-28T05:11:04.894Z,51.48
2022-09-28T05:13:31.269Z,51.66
2022-09-28T05:16:01.763Z,51.73
2022-09-28T05:18:30.862Z,51.70
2022-09-28T05:20:57.229Z,51.71
2022-09-28T05:23:23.596Z,51.53
2022-09-28T05:25:49.959Z,51.41
2022-09-28T05:28:16.338Z,51.42
2022-09-28T05:30:42.711Z,51.42
2022-09-28T05:33:09.090Z,51.67
2022-09-28T05:35:35.443Z,51.78
2022-09-28T05:38:01.820Z,51.71
2022-09-28T05:40:28.251Z,51.89
2022-09-28T05:42:54.704Z,51.78
2022-09-28T05:45:21.087Z,51.95
2022-09-28T05:47:47.458Z,51.88
2022-09-28T05:50:13.824Z,51.94
2022-09-28T05:52:40.197Z,51.91
2022-09-28T05:55:06.558Z,51.74
2022-09-28T05:57:32.938Z,51.89
2022-09-28T05:59:59.302Z,51.70
2022-09-28T06:02:25.700Z,51.54
2022-09-28T06:04:52.200Z,51.48
2022-09-28T06:07:18.569Z,51.77
2022-09-28T06:09:44.961Z,51.82
2022-09-28T06:12:11.430Z,51.69
2022-09-28T06:14:37.798Z,51.78
2022-09-28T06:17:04.244Z,51.87
2022-09-28T06:19:30.697Z,51.99
2022-09-28T06:21:59.279Z,52.01
2022-09-28T06:24:25.848Z,52.12
2022-09-28T06:26:52.216Z,52.03
2022-09-28T06:29:19.667Z,52.19
2022-09-28T06:31:46.298Z,52.11
2022-09-28T06:34:12.671Z,51.99
2022-09-28T06:36:39.057Z,51.94
2022-09-28T06:39:05.435Z,51.99
2022-09-28T06:41:31.798Z,51.70
2022-09-28T06:43:58.216Z,51.70
2022-09-28T06:46:24.612Z,51.65
2022-09-28T06:48:51.023Z,51.74
2022-09-28T06:51:17.382Z,51.67
2022-09-28T06:53:43.744Z,51.63
2022-09-28T06:56:10.100Z,51.50
2022-09-28T06:58:36.462Z,51.59
2022-09-28T07:01:02.843Z,51.72
2022-09-28T07:03:29.234Z,51.71
2022-09-28T07:05:55.607Z,51.50
2022-09-28T07:08:21.975Z,51.78
2022-09-28T07:10:48.354Z,51.68
2022-09-28T07:13:41.688Z,51.65
2022-09-28T07:16:01.072Z,51.71
2022-09-28T07:18:27.483Z,51.73
2022-09-28T07:20:54.774Z,51.55
2022-09-28T07:23:21.189Z,51.70
2022-09-28T07:25:47.553Z,51.62
2022-09-28T07:28:13.926Z,51.80
2022-09-28T07:30:40.337Z,51.79
2022-09-28T07:33:06.727Z,51.67
2022-09-28T07:35:33.087Z,51.68
2022-09-28T07:37:59.447Z,51.65
2022-09-28T07:40:25.888Z,51.90
2022-09-28T07:42:52.317Z,51.90
2022-09-28T07:45:18.687Z,51.77
2022-09-28T07:47:45.042Z,51.74
2022-09-28T07:50:11.450Z,51.70
2022-09-28T07:52:37.853Z,51.67
2022-09-28T07:55:07.063Z,51.77
2022-09-28T07:57:33.869Z,51.69
2022-09-28T08:00:00.230Z,51.80
2022-09-28T08:02:26.646Z,51.66
2022-09-28T08:04:53.325Z,51.67
2022-09-28T08:07:23.727Z,51.69
2022-09-28T08:09:50.530Z,51.72
2022-09-28T08:12:16.895Z,51.69
2022-09-28T08:14:43.308Z,51.66
2022-09-28T08:17:09.764Z,51.65
2022-09-28T08:19:36.128Z,51.58
2022-09-28T08:22:02.506Z,51.60
2022-09-28T08:24:28.868Z,51.61
2022-09-28T08:26:55.250Z,51.56
2022-09-28T08:29:21.606Z,51.75
2022-09-28T08:31:47.994Z,51.53
2022-09-28T08:34:14.425Z,51.58
2022-09-28T08:36:40.844Z,51.61
2022-09-28T08:39:07.217Z,51.65
2022-09-28T08:41:33.572Z,51.42
2022-09-28T08:43:59.933Z,51.63
2022-09-28T08:46:27.224Z,51.53
2022-09-28T08:49:13.299Z,51.61
2022-09-28T08:51:40.104Z,51.66
2022-09-28T08:54:09.474Z,51.69
2022-09-28T08:56:38.268Z,51.59
2022-09-28T08:59:04.619Z,51.66
2022-09-28T09:01:31.080Z,51.57
2022-09-28T09:03:57.494Z,51.59
2022-09-28T09:06:23.861Z,51.63
2022-09-28T09:08:50.237Z,51.62
2022-09-28T09:11:16.592Z,51.59
2022-09-28T09:13:42.966Z,51.57
2022-09-28T09:16:09.324Z,51.64
2022-09-28T09:18:35.688Z,51.59
2022-09-28T09:21:02.051Z,51.60
2022-09-28T09:23:28.513Z,51.69
2022-09-28T09:25:54.873Z,51.59
2022-09-28T09:28:21.223Z,51.54
2022-09-28T09:30:47.672Z,51.55
2022-09-28T09:33:14.079Z,51.46
2022-09-28T09:35:40.433Z,51.59
2022-09-28T09:38:06.793Z,51.69
2022-09-28T09:40:33.184Z,51.62
2022-09-28T09:42:59.584Z,51.46
2022-09-28T09:45:25.949Z,51.63
2022-09-28T09:47:52.322Z,51.58
2022-09-28T09:50:18.727Z,51.57
2022-09-28T09:52:45.158Z,51.41
2022-09-28T09:55:11.533Z,51.53
2022-09-28T09:57:37.905Z,51.62
2022-09-28T10:00:04.267Z,51.46
2022-09-28T10:02:30.712Z,51.61
2022-09-28T10:04:57.130Z,51.59
2022-09-28T10:07:23.504Z,51.36
2022-09-28T10:09:49.876Z,51.42
2022-09-28T10:12:16.260Z,51.50
2022-09-28T10:14:42.650Z,51.31
2022-09-28T10:17:09.068Z,51.35
2022-09-28T10:19:35.459Z,51.30
2022-09-28T10:22:01.857Z,51.36
2022-09-28T10:24:28.219Z,51.26
2022-09-28T10:26:54.584Z,51.34
2022-09-28T10:29:20.965Z,51.48
2022-09-28T10:31:47.361Z,51.68
2022-09-28T10:34:13.750Z,50.99
2022-09-28T10:36:40.157Z,50.69
2022-09-28T10:39:06.543Z,50.39
2022-09-28T10:41:32.927Z,50.10
2022-09-28T10:43:59.301Z,50.31
2022-09-28T10:46:25.764Z,50.32
2022-09-28T10:48:52.185Z,50.18
2022-09-28T10:51:18.556Z,50.59
2022-09-28T10:53:44.928Z,51.64
2022-09-28T10:56:11.296Z,51.85
2022-09-28T10:58:37.665Z,51.76
2022-09-28T11:01:04.107Z,51.71
2022-09-28T11:03:30.523Z,51.82
2022-09-28T11:05:56.888Z,51.83
2022-09-28T11:08:23.257Z,51.87
2022-09-28T11:10:49.627Z,51.83
2022-09-28T11:13:16.000Z,52.07
2022-09-28T11:15:42.375Z,52.08
2022-09-28T11:18:08.758Z,52.07
2022-09-28T11:20:35.139Z,51.77
2022-09-28T11:23:01.530Z,51.54
2022-09-28T11:25:27.902Z,51.74
2022-09-28T11:27:54.275Z,51.46
2022-09-28T11:30:20.694Z,51.42
2022-09-28T11:32:47.081Z,51.47
2022-09-28T11:35:13.458Z,51.47
2022-09-28T11:37:39.837Z,51.44
2022-09-28T11:40:06.265Z,51.33
2022-09-28T11:42:32.651Z,51.33
2022-09-28T11:44:59.022Z,51.41
2022-09-28T11:47:25.409Z,51.37
2022-09-28T11:49:51.776Z,51.39
2022-09-28T11:52:18.155Z,51.52
2022-09-28T11:54:44.520Z,51.24
2022-09-28T11:57:10.904Z,51.43
2022-09-28T11:59:37.279Z,51.31
2022-09-28T12:02:03.707Z,51.46
2022-09-28T12:04:30.197Z,51.27
2022-09-28T12:06:56.560Z,51.33
2022-09-28T12:09:22.949Z,51.18
2022-09-28T12:11:49.317Z,51.32
2022-09-28T12:14:15.690Z,51.38
2022-09-28T12:19:28.420Z,51.38
2022-09-28T12:21:54.799Z,51.23
2022-09-28T12:24:21.178Z,51.18
2022-09-28T12:26:47.551Z,51.05
2022-09-28T12:29:13.954Z,51.15
2022-09-28T12:31:40.328Z,51.17
2022-09-28T12:34:06.696Z,51.26
2022-09-28T12:36:33.178Z,51.14
2022-09-28T12:39:21.756Z,51.26
2022-09-28T12:41:45.927Z,51.07
2022-09-28T12:44:12.301Z,51.31
2022-09-28T12:46:38.745Z,51.08
2022-09-28T12:49:51.475Z,51.11
2022-09-28T12:51:51.477Z,51.21
2022-09-28T12:54:17.946Z,51.12
2022-09-28T12:56:44.400Z,51.14
2022-09-28T12:59:10.794Z,51.27
2022-09-28T13:01:37.241Z,51.16
2022-09-28T13:04:03.633Z,51.31
2022-09-28T13:06:30.014Z,51.27
2022-09-28T13:08:56.383Z,51.19
2022-09-28T13:11:22.768Z,51.32
2022-09-28T13:13:49.137Z,51.42
2022-09-28T13:16:15.597Z,51.16
2022-09-28T13:18:42.013Z,51.32
2022-09-28T13:21:08.382Z,51.14
2022-09-28T13:23:34.762Z,51.32
2022-09-28T13:26:01.123Z,51.27
2022-09-28T13:28:27.556Z,51.40
2022-09-28T13:30:53.999Z,51.21
2022-09-28T13:33:20.416Z,51.22
2022-09-28T13:35:46.781Z,51.24
2022-09-28T13:38:13.144Z,51.21
2022-09-28T13:40:39.568Z,51.28
2022-09-28T13:43:06.024Z,51.42
2022-09-28T13:45:32.399Z,51.23
2022-09-28T13:47:58.773Z,51.34
2022-09-28T13:50:25.153Z,51.29
2022-09-28T13:52:51.672Z,51.29
2022-09-28T13:55:18.057Z,51.35
2022-09-28T13:57:44.451Z,51.32
2022-09-28T14:00:10.901Z,51.33
2022-09-28T14:02:37.373Z,51.29
2022-09-28T14:05:03.787Z,51.14
2022-09-28T14:07:30.186Z,51.27
2022-09-28T14:09:56.567Z,51.26
2022-09-28T14:12:22.949Z,51.27
2022-09-28T14:14:49.323Z,51.22
2022-09-28T14:17:15.714Z,51.34
2022-09-28T14:19:42.098Z,51.10
2022-09-28T14:22:08.470Z,51.31
2022-09-28T14:24:34.852Z,51.23
2022-09-28T14:27:01.230Z,51.14
2022-09-28T14:29:27.611Z,51.08
2022-09-28T14:31:53.996Z,51.19
2022-09-28T14:34:20.375Z,51.23
2022-09-28T14:36:46.756Z,51.08
2022-09-28T14:39:13.140Z,51.18
2022-09-28T14:41:39.508Z,51.21
2022-09-28T14:44:05.887Z,51.04
2022-09-28T14:46:32.318Z,51.38
2022-09-28T14:48:58.735Z,51.16
2022-09-28T14:51:25.130Z,51.22
2022-09-28T14:53:51.503Z,51.17
2022-09-28T14:56:17.869Z,51.21
2022-09-28T14:58:47.016Z,51.37
2022-09-28T15:01:13.376Z,51.27
2022-09-28T15:03:39.747Z,51.36
2022-09-28T15:06:06.121Z,51.22
2022-09-28T15:08:32.505Z,51.21
2022-09-28T15:10:58.888Z,51.05
2022-09-28T15:13:25.266Z,51.13
2022-09-28T15:15:51.673Z,51.10
2022-09-28T15:18:18.124Z,51.26
2022-09-28T15:20:44.514Z,51.26
2022-09-28T15:23:10.892Z,51.12
2022-09-28T15:25:37.266Z,51.22
2022-09-28T15:28:03.665Z,51.15
2022-09-28T15:30:30.032Z,50.99
2022-09-28T15:32:56.413Z,51.03
2022-09-28T15:35:22.786Z,51.04
2022-09-28T15:37:49.159Z,51.13
2022-09-28T15:40:15.568Z,50.82
2022-09-28T15:42:41.941Z,48.51
2022-09-28T15:45:08.301Z,49.93
2022-09-28T15:47:34.855Z,50.96
2022-09-28T15:50:01.242Z,50.55
2022-09-28T15:52:27.619Z,49.98
2022-09-28T15:54:53.986Z,50.03
2022-09-28T15:57:20.368Z,50.03
2022-09-28T15:59:46.727Z,50.21
2022-09-28T16:02:13.199Z,50.40
2022-09-28T16:04:39.660Z,50.23
2022-09-28T16:07:06.038Z,49.95
2022-09-28T16:09:36.056Z,50.02
2022-09-28T16:12:05.268Z,50.11
2022-09-28T16:14:31.663Z,50.28
2022-09-28T16:17:01.070Z,50.05
2022-09-28T16:19:27.457Z,50.11
2022-09-28T16:21:53.824Z,50.21
2022-09-28T16:24:20.188Z,50.29
2022-09-28T16:26:46.568Z,50.16
2022-09-28T16:29:12.936Z,50.13
2022-09-28T16:31:39.311Z,50.28
2022-09-28T16:34:08.499Z,50.38
2022-09-28T16:36:37.721Z,50.35
2022-09-28T16:39:04.097Z,50.66
2022-09-28T16:41:30.474Z,50.74
2022-09-28T16:43:56.936Z,50.74
2022-09-28T16:46:23.384Z,50.63
2022-09-28T16:48:49.815Z,50.59
2022-09-28T16:51:16.193Z,50.70
2022-09-28T16:53:42.569Z,50.78
2022-09-28T16:56:09.016Z,51.00
2022-09-28T16:58:35.390Z,51.44
2022-09-28T17:01:01.770Z,51.67
2022-09-28T17:03:28.213Z,52.07
2022-09-28T17:05:54.651Z,50.79
2022-09-28T17:08:21.058Z,51.16
2022-09-28T17:11:09.715Z,51.43
2022-09-28T17:13:33.823Z,52.06
2022-09-28T17:16:00.254Z,52.49
2022-09-28T17:18:26.639Z,52.96
2022-09-28T17:20:53.014Z,53.40
2022-09-28T17:26:05.691Z,53.78
2022-09-28T17:28:32.079Z,53.94
2022-09-28T17:30:58.537Z,56.08
2022-09-28T17:33:24.983Z,55.89
2022-09-28T17:35:51.399Z,55.17
2022-09-28T17:38:17.788Z,54.91
2022-09-28T17:40:44.179Z,54.45
2022-09-28T17:43:10.570Z,54.21
2022-09-28T17:45:36.939Z,54.03
2022-09-28T17:48:03.451Z,53.82
2022-09-28T17:50:29.845Z,53.47
2022-09-28T17:52:56.210Z,53.47
2022-09-28T17:55:22.576Z,53.64
2022-09-28T17:57:48.966Z,53.56
2022-09-28T18:00:15.339Z,53.58
2022-09-28T18:02:41.839Z,53.85
2022-09-28T18:05:08.244Z,53.71
2022-09-28T18:07:34.616Z,53.85
2022-09-28T18:10:01.002Z,53.72
2022-09-28T18:12:27.386Z,53.48
2022-09-28T18:14:53.796Z,53.63
2022-09-28T18:17:20.179Z,53.88
2022-09-28T18:19:46.564Z,54.26
2022-09-28T18:22:12.945Z,54.33
2022-09-28T18:24:39.313Z,54.42
2022-09-28T18:27:05.723Z,54.56
2022-09-28T18:29:33.445Z,54.32
2022-09-28T18:31:59.988Z,54.25
2022-09-28T18:34:26.363Z,53.94
2022-09-28T18:36:52.757Z,54.09
2022-09-28T18:39:19.211Z,53.68
2022-09-28T18:41:45.676Z,53.78
2022-09-28T18:44:12.145Z,53.66
2022-09-28T18:46:38.616Z,53.78
2022-09-28T18:49:05.032Z,54.06
2022-09-28T18:51:31.404Z,53.88
2022-09-28T18:53:57.780Z,53.83
2022-09-28T18:56:24.163Z,53.83
2022-09-28T18:58:50.639Z,53.67
2022-09-28T19:01:32.661Z,53.56
2022-09-28T19:03:59.261Z,53.46
2022-09-28T19:06:25.635Z,53.29
2022-09-28T19:08:52.175Z,53.31
2022-09-28T19:11:18.566Z,53.22
2022-09-28T19:13:44.946Z,53.47
2022-09-28T19:16:11.398Z,53.19
2022-09-28T19:18:37.821Z,53.13
2022-09-28T19:21:04.210Z,53.33
2022-09-28T19:23:30.598Z,53.10
2022-09-28T19:25:56.975Z,53.10
2022-09-28T19:28:23.355Z,53.05
2022-09-28T19:30:49.888Z,52.99
2022-09-28T19:33:16.353Z,52.87
2022-09-28T19:35:42.725Z,52.58
2022-09-28T19:38:09.105Z,52.67
2022-09-28T19:40:35.580Z,52.58
2022-09-28T19:43:01.998Z,52.73
2022-09-28T19:45:28.373Z,52.72
2022-09-28T19:47:59.241Z,52.41
2022-09-28T19:50:25.823Z,52.72
2022-09-28T19:52:52.193Z,52.80
2022-09-28T19:55:18.560Z,52.59
2022-09-28T19:57:44.923Z,52.79
2022-09-28T20:00:11.309Z,52.73
2022-09-28T20:02:37.725Z,52.89
2022-09-28T20:05:04.174Z,52.90
2022-09-28T20:07:30.640Z,52.90
2022-09-28T20:09:57.009Z,53.05
2022-09-28T20:12:23.382Z,52.88
2022-09-28T20:14:49.751Z,53.01
2022-09-28T20:17:16.117Z,52.74
2022-09-28T20:19:42.490Z,52.83
2022-09-28T20:22:08.857Z,52.63
2022-09-28T20:24:35.254Z,52.63
2022-09-28T20:27:01.838Z,52.74
2022-09-28T20:29:28.310Z,52.53
2022-09-28T20:31:54.685Z,52.56
2022-09-28T20:34:21.079Z,52.72
2022-09-28T20:36:47.453Z,52.74
2022-09-28T20:39:13.827Z,52.81
2022-09-28T20:41:40.211Z,52.95
2022-09-28T20:44:06.863Z,52.84
2022-09-28T20:46:33.353Z,52.77
2022-09-28T20:48:59.816Z,52.70
2022-09-28T20:51:26.206Z,52.83
2022-09-28T20:53:52.595Z,52.71
2022-09-28T20:56:18.963Z,52.71
2022-09-28T20:58:45.346Z,52.41
2022-09-28T21:01:11.739Z,52.44
2022-09-28T21:03:38.132Z,52.44
2022-09-28T21:06:07.606Z,52.39
2022-09-28T21:08:36.472Z,51.78
2022-09-28T21:11:03.031Z,50.84
2022-09-28T21:13:29.407Z,50.73
2022-09-28T21:15:55.810Z,50.33
2022-09-28T21:18:22.244Z,50.43
2022-09-28T21:20:48.630Z,51.15
2022-09-28T21:23:15.009Z,52.74
2022-09-28T21:25:41.401Z,52.87
2022-09-28T21:28:07.770Z,53.13
2022-09-28T21:30:34.147Z,51.88
2022-09-28T21:33:00.538Z,51.28
2022-09-28T21:35:26.901Z,51.17
2022-09-28T21:37:53.269Z,51.13
2022-09-28T21:40:19.728Z,51.03
2022-09-28T21:42:46.133Z,50.93
2022-09-28T21:45:12.504Z,50.72
2022-09-28T21:47:38.876Z,50.76
2022-09-28T21:50:05.254Z,50.68
2022-09-28T21:52:31.626Z,50.77
2022-09-28T21:54:58.010Z,50.80
2022-09-28T21:57:24.376Z,50.69
2022-09-28T21:59:50.732Z,50.87
2022-09-28T22:02:17.175Z,51.01
2022-09-28T22:04:43.586Z,51.08
2022-09-28T22:07:09.966Z,51.08
2022-09-28T22:09:36.345Z,51.43
2022-09-28T22:12:02.706Z,51.10
2022-09-28T22:14:29.084Z,51.18
2022-09-28T22:16:55.457Z,51.48
2022-09-28T22:19:21.822Z,51.79
2022-09-28T22:21:48.213Z,51.99
2022-09-28T22:24:14.607Z,52.09
2022-09-28T22:26:41.046Z,52.25
2022-09-28T22:29:07.426Z,52.29
2022-09-28T22:31:33.837Z,52.28
2022-09-28T22:34:00.216Z,52.36
2022-09-28T22:36:26.597Z,52.39
2022-09-28T22:38:52.965Z,52.50
2022-09-28T22:41:19.345Z,52.44
2022-09-28T22:43:45.724Z,52.42
2022-09-28T22:46:12.126Z,52.63
2022-09-28T22:48:38.535Z,52.48
2022-09-28T22:51:04.891Z,52.56
2022-09-28T22:53:31.262Z,52.44
2022-09-28T22:55:57.627Z,52.70
2022-09-28T22:58:23.982Z,52.62
2022-09-28T23:00:50.370Z,52.76
2022-09-28T23:03:16.843Z,52.70
2022-09-28T23:05:43.243Z,52.66
2022-09-28T23:08:09.605Z,52.66
2022-09-28T23:10:35.976Z,52.70
2022-09-28T23:13:02.343Z,52.66
2022-09-28T23:15:28.726Z,52.64
2022-09-28T23:17:55.088Z,52.70
2022-09-28T23:20:21.448Z,52.76
2022-09-28T23:22:47.826Z,52.90
2022-09-28T23:25:14.191Z,52.76
2022-09-28T23:27:40.559Z,52.76
2022-09-28T23:30:06.925Z,52.72
2022-09-28T23:32:33.284Z,52.75
2022-09-28T23:34:59.638Z,52.82
2022-09-28T23:37:26.012Z,52.76
2022-09-28T23:39:52.384Z,52.80
2022-09-28T23:42:18.750Z,52.84
2022-09-28T23:44:45.124Z,52.84
2022-09-28T23:47:11.480Z,52.80
2022-09-28T23:49:37.836Z,52.83
2022-09-28T23:52:04.209Z,52.66
2022-09-28T23:54:30.572Z,52.76
2022-09-28T23:56:56.928Z,52.56
2022-09-28T23:59:23.292Z,52.76
